sensor_id;sensor_type;location;lat;lon;timestamp;temperature;humidity
16785;DHT22;8509;52.178;5.404;2024-02-23T00:00:23;5.60;99.90
16785;DHT22;8509;52.178;5.404;2024-02-23T00:02:49;5.70;99.90
16785;DHT22;8509;52.178;5.404;2024-02-23T00:05:15;5.70;99.90
16785;DHT22;8509;52.178;5.404;2024-02-23T00:07:40;5.70;99.90
16785;DHT22;8509;52.178;5.404;2024-02-23T00:10:06;5.70;99.90
16785;DHT22;8509;52.178;5.404;2024-02-23T00:12:32;5.70;99.90
16785;DHT22;8509;52.178;5.404;2024-02-23T00:15:01;5.70;99.90
16785;DHT22;8509;52.178;5.404;2024-02-23T00:17:27;5.70;99.90
16785;DHT22;8509;52.178;5.404;2024-02-23T00:19:52;5.90;99.90
16785;DHT22;8509;52.178;5.404;2024-02-23T00:22:18;5.80;99.90
16785;DHT22;8509;52.178;5.404;2024-02-23T00:24:44;5.80;99.90
16785;DHT22;8509;52.178;5.404;2024-02-23T00:27:10;5.90;99.90
16785;DHT22;8509;52.178;5.404;2024-02-23T00:29:35;5.90;99.90
16785;DHT22;8509;52.178;5.404;2024-02-23T00:32:02;6.00;99.90
16785;DHT22;8509;52.178;5.404;2024-02-23T00:34:28;6.00;99.90
16785;DHT22;8509;52.178;5.404;2024-02-23T00:36:56;6.10;99.90
16785;DHT22;8509;52.178;5.404;2024-02-23T00:39:21;6.00;99.90
16785;DHT22;8509;52.178;5.404;2024-02-23T00:41:47;6.10;99.90
16785;DHT22;8509;52.178;5.404;2024-02-23T00:44:13;6.00;99.90
16785;DHT22;8509;52.178;5.404;2024-02-23T00:46:38;6.10;99.90
16785;DHT22;8509;52.178;5.404;2024-02-23T00:49:05;6.00;99.90
16785;DHT22;8509;52.178;5.404;2024-02-23T00:51:31;6.00;99.90
16785;DHT22;8509;52.178;5.404;2024-02-23T00:53:57;6.00;99.90
16785;DHT22;8509;52.178;5.404;2024-02-23T00:56:23;6.10;99.90
16785;DHT22;8509;52.178;5.404;2024-02-23T00:58:49;6.10;99.90
16785;DHT22;8509;52.178;5.404;2024-02-23T01:01:14;6.10;99.90
16785;DHT22;8509;52.178;5.404;2024-02-23T01:03:40;6.30;99.90
16785;DHT22;8509;52.178;5.404;2024-02-23T01:06:06;6.20;99.90
16785;DHT22;8509;52.178;5.404;2024-02-23T01:08:31;6.30;99.90
16785;DHT22;8509;52.178;5.404;2024-02-23T01:10:57;6.30;99.90
16785;DHT22;8509;52.178;5.404;2024-02-23T01:13:23;6.40;99.90
16785;DHT22;8509;52.178;5.404;2024-02-23T01:15:49;6.30;99.90
16785;DHT22;8509;52.178;5.404;2024-02-23T01:18:14;6.30;99.90
16785;DHT22;8509;52.178;5.404;2024-02-23T01:20:46;6.20;99.90
16785;DHT22;8509;52.178;5.404;2024-02-23T01:23:12;6.10;99.90
16785;DHT22;8509;52.178;5.404;2024-02-23T01:25:37;6.00;99.90
16785;DHT22;8509;52.178;5.404;2024-02-23T01:28:03;6.00;99.90
16785;DHT22;8509;52.178;5.404;2024-02-23T01:30:29;6.00;99.90
16785;DHT22;8509;52.178;5.404;2024-02-23T01:32:55;5.80;99.90
16785;DHT22;8509;52.178;5.404;2024-02-23T01:35:20;5.80;99.90
16785;DHT22;8509;52.178;5.404;2024-02-23T01:37:46;6.00;99.90
16785;DHT22;8509;52.178;5.404;2024-02-23T01:40:12;5.70;99.90
16785;DHT22;8509;52.178;5.404;2024-02-23T01:42:38;5.70;99.90
16785;DHT22;8509;52.178;5.404;2024-02-23T01:45:04;5.60;99.90
16785;DHT22;8509;52.178;5.404;2024-02-23T01:47:30;5.60;99.90
16785;DHT22;8509;52.178;5.404;2024-02-23T01:49:57;5.50;99.90
16785;DHT22;8509;52.178;5.404;2024-02-23T01:52:24;5.50;99.90
16785;DHT22;8509;52.178;5.404;2024-02-23T01:54:51;5.60;99.90
16785;DHT22;8509;52.178;5.404;2024-02-23T01:57:17;5.70;99.90
16785;DHT22;8509;52.178;5.404;2024-02-23T01:59:44;5.70;99.90
16785;DHT22;8509;52.178;5.404;2024-02-23T02:02:10;5.80;99.90
16785;DHT22;8509;52.178;5.404;2024-02-23T02:04:36;5.60;99.90
16785;DHT22;8509;52.178;5.404;2024-02-23T02:07:02;5.80;99.90
16785;DHT22;8509;52.178;5.404;2024-02-23T02:09:29;5.80;99.90
16785;DHT22;8509;52.178;5.404;2024-02-23T02:11:54;5.80;99.90
16785;DHT22;8509;52.178;5.404;2024-02-23T02:14:20;5.80;99.90
16785;DHT22;8509;52.178;5.404;2024-02-23T02:16:46;5.90;99.90
16785;DHT22;8509;52.178;5.404;2024-02-23T02:19:12;6.10;99.90
16785;DHT22;8509;52.178;5.404;2024-02-23T02:21:40;5.90;99.90
16785;DHT22;8509;52.178;5.404;2024-02-23T02:24:06;6.10;99.90
16785;DHT22;8509;52.178;5.404;2024-02-23T02:26:32;5.90;99.90
16785;DHT22;8509;52.178;5.404;2024-02-23T02:28:58;5.90;99.90
16785;DHT22;8509;52.178;5.404;2024-02-23T02:31:23;6.00;99.90
16785;DHT22;8509;52.178;5.404;2024-02-23T02:33:49;5.80;99.90
16785;DHT22;8509;52.178;5.404;2024-02-23T02:36:23;6.00;99.90
16785;DHT22;8509;52.178;5.404;2024-02-23T02:38:51;5.90;99.90
16785;DHT22;8509;52.178;5.404;2024-02-23T02:41:17;6.00;99.90
16785;DHT22;8509;52.178;5.404;2024-02-23T02:43:45;5.80;99.90
16785;DHT22;8509;52.178;5.404;2024-02-23T02:46:11;5.90;99.90
16785;DHT22;8509;52.178;5.404;2024-02-23T02:48:37;5.80;99.90
16785;DHT22;8509;52.178;5.404;2024-02-23T02:51:03;5.70;99.90
16785;DHT22;8509;52.178;5.404;2024-02-23T02:53:29;5.80;99.90
16785;DHT22;8509;52.178;5.404;2024-02-23T02:55:54;5.70;99.90
16785;DHT22;8509;52.178;5.404;2024-02-23T02:58:20;5.70;99.90
16785;DHT22;8509;52.178;5.404;2024-02-23T03:00:46;5.70;99.90
16785;DHT22;8509;52.178;5.404;2024-02-23T03:03:11;5.60;99.90
16785;DHT22;8509;52.178;5.404;2024-02-23T03:05:38;5.60;99.90
16785;DHT22;8509;52.178;5.404;2024-02-23T03:08:04;5.50;99.90
16785;DHT22;8509;52.178;5.404;2024-02-23T03:10:30;5.50;99.90
16785;DHT22;8509;52.178;5.404;2024-02-23T03:12:55;5.50;99.90
16785;DHT22;8509;52.178;5.404;2024-02-23T03:15:21;5.50;99.90
16785;DHT22;8509;52.178;5.404;2024-02-23T03:17:47;5.60;99.90
16785;DHT22;8509;52.178;5.404;2024-02-23T03:20:13;5.40;99.90
16785;DHT22;8509;52.178;5.404;2024-02-23T03:22:39;5.50;99.90
16785;DHT22;8509;52.178;5.404;2024-02-23T03:25:05;5.40;99.90
16785;DHT22;8509;52.178;5.404;2024-02-23T03:27:35;5.50;99.90
16785;DHT22;8509;52.178;5.404;2024-02-23T03:30:05;5.50;99.90
16785;DHT22;8509;52.178;5.404;2024-02-23T03:32:33;5.50;99.90
16785;DHT22;8509;52.178;5.404;2024-02-23T03:35:06;5.40;99.90
16785;DHT22;8509;52.178;5.404;2024-02-23T03:37:32;5.40;99.90
16785;DHT22;8509;52.178;5.404;2024-02-23T03:39:58;5.60;99.90
16785;DHT22;8509;52.178;5.404;2024-02-23T03:42:27;5.40;99.90
16785;DHT22;8509;52.178;5.404;2024-02-23T03:44:53;5.40;99.90
16785;DHT22;8509;52.178;5.404;2024-02-23T03:47:19;5.40;99.90
16785;DHT22;8509;52.178;5.404;2024-02-23T03:49:45;5.40;99.90
16785;DHT22;8509;52.178;5.404;2024-02-23T03:52:11;5.40;99.90
16785;DHT22;8509;52.178;5.404;2024-02-23T03:54:42;5.30;99.90
16785;DHT22;8509;52.178;5.404;2024-02-23T03:57:08;5.20;99.90
16785;DHT22;8509;52.178;5.404;2024-02-23T03:59:36;5.20;99.90
16785;DHT22;8509;52.178;5.404;2024-02-23T04:02:02;5.20;99.90
16785;DHT22;8509;52.178;5.404;2024-02-23T04:04:29;5.10;99.90
16785;DHT22;8509;52.178;5.404;2024-02-23T04:06:58;5.00;99.90
16785;DHT22;8509;52.178;5.404;2024-02-23T04:09:24;5.00;99.90
16785;DHT22;8509;52.178;5.404;2024-02-23T04:11:50;5.00;99.90
16785;DHT22;8509;52.178;5.404;2024-02-23T04:14:15;5.10;99.90
16785;DHT22;8509;52.178;5.404;2024-02-23T04:16:42;5.10;99.90
16785;DHT22;8509;52.178;5.404;2024-02-23T04:19:08;4.90;99.90
16785;DHT22;8509;52.178;5.404;2024-02-23T04:21:33;5.00;99.90
16785;DHT22;8509;52.178;5.404;2024-02-23T04:23:59;4.90;99.90
16785;DHT22;8509;52.178;5.404;2024-02-23T04:26:25;4.90;99.90
16785;DHT22;8509;52.178;5.404;2024-02-23T04:28:51;5.00;99.90
16785;DHT22;8509;52.178;5.404;2024-02-23T04:31:18;4.80;99.90
16785;DHT22;8509;52.178;5.404;2024-02-23T04:33:43;4.80;99.90
16785;DHT22;8509;52.178;5.404;2024-02-23T04:36:09;4.80;99.90
16785;DHT22;8509;52.178;5.404;2024-02-23T04:38:35;4.80;99.90
16785;DHT22;8509;52.178;5.404;2024-02-23T04:41:03;4.80;99.90
16785;DHT22;8509;52.178;5.404;2024-02-23T04:43:30;4.90;99.90
16785;DHT22;8509;52.178;5.404;2024-02-23T04:45:55;4.90;99.90
16785;DHT22;8509;52.178;5.404;2024-02-23T04:48:21;4.90;99.90
16785;DHT22;8509;52.178;5.404;2024-02-23T04:50:47;5.00;99.90
16785;DHT22;8509;52.178;5.404;2024-02-23T04:53:15;4.70;99.90
16785;DHT22;8509;52.178;5.404;2024-02-23T04:55:41;4.70;99.90
16785;DHT22;8509;52.178;5.404;2024-02-23T04:58:07;4.70;99.90
16785;DHT22;8509;52.178;5.404;2024-02-23T05:00:33;4.80;99.90
16785;DHT22;8509;52.178;5.404;2024-02-23T05:03:02;4.80;99.90
16785;DHT22;8509;52.178;5.404;2024-02-23T05:05:32;4.80;99.90
16785;DHT22;8509;52.178;5.404;2024-02-23T05:07:58;4.90;99.90
16785;DHT22;8509;52.178;5.404;2024-02-23T05:10:25;4.90;99.90
16785;DHT22;8509;52.178;5.404;2024-02-23T05:12:50;5.00;99.90
16785;DHT22;8509;52.178;5.404;2024-02-23T05:15:16;5.00;99.90
16785;DHT22;8509;52.178;5.404;2024-02-23T05:17:43;5.30;99.90
16785;DHT22;8509;52.178;5.404;2024-02-23T05:20:09;5.20;99.90
16785;DHT22;8509;52.178;5.404;2024-02-23T05:22:39;5.20;99.90
16785;DHT22;8509;52.178;5.404;2024-02-23T05:25:05;5.40;99.90
16785;DHT22;8509;52.178;5.404;2024-02-23T05:27:31;5.30;99.90
16785;DHT22;8509;52.178;5.404;2024-02-23T05:29:57;5.30;99.90
16785;DHT22;8509;52.178;5.404;2024-02-23T05:32:23;5.30;99.90
16785;DHT22;8509;52.178;5.404;2024-02-23T05:34:49;5.40;99.90
16785;DHT22;8509;52.178;5.404;2024-02-23T05:37:18;5.60;99.90
16785;DHT22;8509;52.178;5.404;2024-02-23T05:39:47;5.50;99.90
16785;DHT22;8509;52.178;5.404;2024-02-23T05:42:13;5.50;99.90
16785;DHT22;8509;52.178;5.404;2024-02-23T05:44:39;5.50;99.90
16785;DHT22;8509;52.178;5.404;2024-02-23T05:47:05;5.50;99.90
16785;DHT22;8509;52.178;5.404;2024-02-23T05:49:33;5.50;99.90
16785;DHT22;8509;52.178;5.404;2024-02-23T05:52:00;5.50;99.90
16785;DHT22;8509;52.178;5.404;2024-02-23T05:54:30;5.70;99.90
16785;DHT22;8509;52.178;5.404;2024-02-23T05:56:56;5.50;99.90
16785;DHT22;8509;52.178;5.404;2024-02-23T05:59:21;5.60;99.90
16785;DHT22;8509;52.178;5.404;2024-02-23T06:01:47;5.50;99.90
16785;DHT22;8509;52.178;5.404;2024-02-23T06:04:13;5.60;99.90
16785;DHT22;8509;52.178;5.404;2024-02-23T06:06:41;5.60;99.90
16785;DHT22;8509;52.178;5.404;2024-02-23T06:09:08;5.40;99.90
16785;DHT22;8509;52.178;5.404;2024-02-23T06:11:35;5.50;99.90
16785;DHT22;8509;52.178;5.404;2024-02-23T06:14:03;5.70;99.90
16785;DHT22;8509;52.178;5.404;2024-02-23T06:16:28;5.60;99.90
16785;DHT22;8509;52.178;5.404;2024-02-23T06:18:54;5.60;99.90
16785;DHT22;8509;52.178;5.404;2024-02-23T06:21:20;5.70;99.90
16785;DHT22;8509;52.178;5.404;2024-02-23T06:23:45;5.70;99.90
16785;DHT22;8509;52.178;5.404;2024-02-23T06:26:12;5.70;99.90
16785;DHT22;8509;52.178;5.404;2024-02-23T06:28:38;5.70;99.90
16785;DHT22;8509;52.178;5.404;2024-02-23T06:31:07;5.70;99.90
16785;DHT22;8509;52.178;5.404;2024-02-23T06:33:32;5.70;99.90
16785;DHT22;8509;52.178;5.404;2024-02-23T06:35:58;5.70;99.90
16785;DHT22;8509;52.178;5.404;2024-02-23T06:38:24;5.70;99.90
16785;DHT22;8509;52.178;5.404;2024-02-23T06:40:49;5.70;99.90
16785;DHT22;8509;52.178;5.404;2024-02-23T06:43:15;5.80;99.90
16785;DHT22;8509;52.178;5.404;2024-02-23T06:45:41;5.80;99.90
16785;DHT22;8509;52.178;5.404;2024-02-23T06:48:10;5.90;99.90
16785;DHT22;8509;52.178;5.404;2024-02-23T06:50:36;5.80;99.90
16785;DHT22;8509;52.178;5.404;2024-02-23T06:53:01;5.80;99.90
16785;DHT22;8509;52.178;5.404;2024-02-23T06:55:28;5.90;99.90
16785;DHT22;8509;52.178;5.404;2024-02-23T06:57:54;5.90;99.90
16785;DHT22;8509;52.178;5.404;2024-02-23T07:00:22;6.00;99.90
16785;DHT22;8509;52.178;5.404;2024-02-23T07:02:48;6.00;99.90
16785;DHT22;8509;52.178;5.404;2024-02-23T07:05:14;6.00;99.90
16785;DHT22;8509;52.178;5.404;2024-02-23T07:07:40;6.20;99.90
16785;DHT22;8509;52.178;5.404;2024-02-23T07:10:06;6.00;99.90
16785;DHT22;8509;52.178;5.404;2024-02-23T07:12:32;6.00;99.90
16785;DHT22;8509;52.178;5.404;2024-02-23T07:14:57;6.00;99.90
16785;DHT22;8509;52.178;5.404;2024-02-23T07:17:23;6.10;99.90
16785;DHT22;8509;52.178;5.404;2024-02-23T07:19:49;6.20;99.90
16785;DHT22;8509;52.178;5.404;2024-02-23T07:22:16;6.20;99.90
16785;DHT22;8509;52.178;5.404;2024-02-23T07:24:43;6.10;99.90
16785;DHT22;8509;52.178;5.404;2024-02-23T07:27:09;6.20;99.90
16785;DHT22;8509;52.178;5.404;2024-02-23T07:29:35;6.20;99.90
16785;DHT22;8509;52.178;5.404;2024-02-23T07:32:02;6.20;99.90
16785;DHT22;8509;52.178;5.404;2024-02-23T07:34:31;6.30;99.90
16785;DHT22;8509;52.178;5.404;2024-02-23T07:37:03;6.30;99.90
16785;DHT22;8509;52.178;5.404;2024-02-23T07:39:29;6.40;99.90
16785;DHT22;8509;52.178;5.404;2024-02-23T07:41:55;6.40;99.90
16785;DHT22;8509;52.178;5.404;2024-02-23T07:44:20;6.60;99.90
16785;DHT22;8509;52.178;5.404;2024-02-23T07:46:46;6.80;99.90
16785;DHT22;8509;52.178;5.404;2024-02-23T07:49:12;6.80;99.90
16785;DHT22;8509;52.178;5.404;2024-02-23T07:51:37;6.80;99.90
16785;DHT22;8509;52.178;5.404;2024-02-23T07:54:03;6.90;99.90
16785;DHT22;8509;52.178;5.404;2024-02-23T07:56:29;6.90;99.90
16785;DHT22;8509;52.178;5.404;2024-02-23T07:58:55;7.10;99.90
16785;DHT22;8509;52.178;5.404;2024-02-23T08:01:22;7.00;99.90
16785;DHT22;8509;52.178;5.404;2024-02-23T08:03:47;7.00;99.90
16785;DHT22;8509;52.178;5.404;2024-02-23T08:06:13;7.00;99.90
16785;DHT22;8509;52.178;5.404;2024-02-23T08:08:39;6.90;99.90
16785;DHT22;8509;52.178;5.404;2024-02-23T08:11:05;6.90;99.90
16785;DHT22;8509;52.178;5.404;2024-02-23T08:13:36;6.90;99.90
16785;DHT22;8509;52.178;5.404;2024-02-23T08:16:02;6.80;99.90
16785;DHT22;8509;52.178;5.404;2024-02-23T08:18:29;6.90;99.90
16785;DHT22;8509;52.178;5.404;2024-02-23T08:20:54;7.10;99.90
16785;DHT22;8509;52.178;5.404;2024-02-23T08:23:20;6.90;99.90
16785;DHT22;8509;52.178;5.404;2024-02-23T08:25:48;7.00;99.90
16785;DHT22;8509;52.178;5.404;2024-02-23T08:28:13;7.00;99.90
16785;DHT22;8509;52.178;5.404;2024-02-23T08:30:39;7.10;99.90
16785;DHT22;8509;52.178;5.404;2024-02-23T08:33:05;7.20;99.90
16785;DHT22;8509;52.178;5.404;2024-02-23T08:35:31;7.00;99.90
16785;DHT22;8509;52.178;5.404;2024-02-23T08:37:57;7.10;99.90
16785;DHT22;8509;52.178;5.404;2024-02-23T08:40:24;7.10;99.90
16785;DHT22;8509;52.178;5.404;2024-02-23T08:42:52;7.00;99.90
16785;DHT22;8509;52.178;5.404;2024-02-23T08:45:20;7.00;99.90
16785;DHT22;8509;52.178;5.404;2024-02-23T08:47:45;7.00;99.90
16785;DHT22;8509;52.178;5.404;2024-02-23T08:50:11;7.10;99.90
16785;DHT22;8509;52.178;5.404;2024-02-23T08:52:37;7.00;99.90
16785;DHT22;8509;52.178;5.404;2024-02-23T08:55:04;7.20;99.90
16785;DHT22;8509;52.178;5.404;2024-02-23T08:57:46;7.00;99.90
16785;DHT22;8509;52.178;5.404;2024-02-23T09:00:12;7.00;99.90
16785;DHT22;8509;52.178;5.404;2024-02-23T09:02:38;6.90;99.90
16785;DHT22;8509;52.178;5.404;2024-02-23T09:05:04;6.90;99.90
16785;DHT22;8509;52.178;5.404;2024-02-23T09:07:30;6.80;99.90
16785;DHT22;8509;52.178;5.404;2024-02-23T09:09:56;6.80;99.90
16785;DHT22;8509;52.178;5.404;2024-02-23T09:12:22;6.80;99.90
16785;DHT22;8509;52.178;5.404;2024-02-23T09:14:48;6.80;99.90
16785;DHT22;8509;52.178;5.404;2024-02-23T09:17:16;6.90;99.90
16785;DHT22;8509;52.178;5.404;2024-02-23T09:19:44;6.80;99.90
16785;DHT22;8509;52.178;5.404;2024-02-23T09:22:09;6.80;99.90
16785;DHT22;8509;52.178;5.404;2024-02-23T09:24:38;6.80;99.90
16785;DHT22;8509;52.178;5.404;2024-02-23T09:27:04;6.90;99.90
16785;DHT22;8509;52.178;5.404;2024-02-23T09:29:30;6.80;99.90
16785;DHT22;8509;52.178;5.404;2024-02-23T09:31:55;6.90;99.90
16785;DHT22;8509;52.178;5.404;2024-02-23T09:34:21;7.00;99.90
16785;DHT22;8509;52.178;5.404;2024-02-23T09:36:47;6.90;99.90
16785;DHT22;8509;52.178;5.404;2024-02-23T09:39:12;6.90;99.90
16785;DHT22;8509;52.178;5.404;2024-02-23T09:41:39;7.10;99.90
16785;DHT22;8509;52.178;5.404;2024-02-23T09:44:05;7.00;99.90
16785;DHT22;8509;52.178;5.404;2024-02-23T09:46:33;7.00;99.90
16785;DHT22;8509;52.178;5.404;2024-02-23T09:49:02;6.80;99.90
16785;DHT22;8509;52.178;5.404;2024-02-23T09:51:29;6.80;99.90
16785;DHT22;8509;52.178;5.404;2024-02-23T09:53:56;6.80;99.90
16785;DHT22;8509;52.178;5.404;2024-02-23T09:56:27;6.80;99.90
16785;DHT22;8509;52.178;5.404;2024-02-23T09:58:56;6.90;99.90
16785;DHT22;8509;52.178;5.404;2024-02-23T10:01:28;6.80;99.90
16785;DHT22;8509;52.178;5.404;2024-02-23T10:03:57;7.00;99.90
16785;DHT22;8509;52.178;5.404;2024-02-23T10:06:25;7.10;99.90
16785;DHT22;8509;52.178;5.404;2024-02-23T10:08:51;7.40;99.90
16785;DHT22;8509;52.178;5.404;2024-02-23T10:11:26;7.50;99.90
16785;DHT22;8509;52.178;5.404;2024-02-23T10:13:51;7.70;99.90
16785;DHT22;8509;52.178;5.404;2024-02-23T10:16:21;7.80;99.90
16785;DHT22;8509;52.178;5.404;2024-02-23T10:18:50;8.00;99.90
16785;DHT22;8509;52.178;5.404;2024-02-23T10:21:16;7.90;99.90
16785;DHT22;8509;52.178;5.404;2024-02-23T10:23:45;7.90;99.90
16785;DHT22;8509;52.178;5.404;2024-02-23T10:26:11;7.90;99.90
16785;DHT22;8509;52.178;5.404;2024-02-23T10:28:37;7.90;99.90
16785;DHT22;8509;52.178;5.404;2024-02-23T10:31:06;8.00;99.90
16785;DHT22;8509;52.178;5.404;2024-02-23T10:33:32;8.10;99.90
16785;DHT22;8509;52.178;5.404;2024-02-23T10:35:58;8.00;99.90
16785;DHT22;8509;52.178;5.404;2024-02-23T10:38:32;8.00;99.90
16785;DHT22;8509;52.178;5.404;2024-02-23T10:40:58;8.10;99.90
16785;DHT22;8509;52.178;5.404;2024-02-23T10:43:33;8.00;99.90
16785;DHT22;8509;52.178;5.404;2024-02-23T10:45:59;8.00;99.90
16785;DHT22;8509;52.178;5.404;2024-02-23T10:48:28;7.90;99.90
16785;DHT22;8509;52.178;5.404;2024-02-23T10:50:55;7.90;99.90
16785;DHT22;8509;52.178;5.404;2024-02-23T10:53:25;7.90;99.90
16785;DHT22;8509;52.178;5.404;2024-02-23T10:55:57;8.00;99.90
16785;DHT22;8509;52.178;5.404;2024-02-23T10:58:27;8.00;99.90
16785;DHT22;8509;52.178;5.404;2024-02-23T11:01:01;8.10;99.90
16785;DHT22;8509;52.178;5.404;2024-02-23T11:03:32;8.20;99.90
16785;DHT22;8509;52.178;5.404;2024-02-23T11:06:00;8.20;99.90
16785;DHT22;8509;52.178;5.404;2024-02-23T11:08:29;8.40;99.90
16785;DHT22;8509;52.178;5.404;2024-02-23T11:10:55;8.40;99.90
16785;DHT22;8509;52.178;5.404;2024-02-23T11:13:35;8.60;99.90
16785;DHT22;8509;52.178;5.404;2024-02-23T11:16:05;8.70;99.90
16785;DHT22;8509;52.178;5.404;2024-02-23T11:18:32;8.70;99.90
16785;DHT22;8509;52.178;5.404;2024-02-23T11:21:00;8.70;99.90
16785;DHT22;8509;52.178;5.404;2024-02-23T11:23:27;8.70;99.90
16785;DHT22;8509;52.178;5.404;2024-02-23T11:26:04;8.70;99.90
16785;DHT22;8509;52.178;5.404;2024-02-23T11:28:31;8.70;99.90
16785;DHT22;8509;52.178;5.404;2024-02-23T11:30:57;8.80;99.90
16785;DHT22;8509;52.178;5.404;2024-02-23T11:33:28;8.90;99.90
16785;DHT22;8509;52.178;5.404;2024-02-23T11:36:07;8.90;99.90
16785;DHT22;8509;52.178;5.404;2024-02-23T11:38:33;8.90;99.90
16785;DHT22;8509;52.178;5.404;2024-02-23T11:41:00;8.80;99.90
16785;DHT22;8509;52.178;5.404;2024-02-23T11:43:27;9.00;99.90
16785;DHT22;8509;52.178;5.404;2024-02-23T11:45:53;9.10;99.90
16785;DHT22;8509;52.178;5.404;2024-02-23T11:48:20;9.20;99.90
16785;DHT22;8509;52.178;5.404;2024-02-23T11:50:48;9.10;99.90
16785;DHT22;8509;52.178;5.404;2024-02-23T11:53:14;9.30;99.90
16785;DHT22;8509;52.178;5.404;2024-02-23T11:55:40;9.40;99.90
16785;DHT22;8509;52.178;5.404;2024-02-23T11:58:06;9.50;99.90
16785;DHT22;8509;52.178;5.404;2024-02-23T12:00:32;9.40;99.90
16785;DHT22;8509;52.178;5.404;2024-02-23T12:02:58;9.40;99.90
16785;DHT22;8509;52.178;5.404;2024-02-23T12:05:24;9.30;99.90
16785;DHT22;8509;52.178;5.404;2024-02-23T12:07:50;9.40;99.90
16785;DHT22;8509;52.178;5.404;2024-02-23T12:10:16;9.50;99.90
16785;DHT22;8509;52.178;5.404;2024-02-23T12:12:45;9.50;99.90
16785;DHT22;8509;52.178;5.404;2024-02-23T12:15:11;9.50;99.90
16785;DHT22;8509;52.178;5.404;2024-02-23T12:17:37;9.30;99.90
16785;DHT22;8509;52.178;5.404;2024-02-23T12:20:03;9.10;99.90
16785;DHT22;8509;52.178;5.404;2024-02-23T12:22:29;9.10;99.90
16785;DHT22;8509;52.178;5.404;2024-02-23T12:24:59;9.00;99.90
16785;DHT22;8509;52.178;5.404;2024-02-23T12:27:25;9.10;99.90
16785;DHT22;8509;52.178;5.404;2024-02-23T12:29:55;9.30;99.90
16785;DHT22;8509;52.178;5.404;2024-02-23T12:32:21;9.60;99.90
16785;DHT22;8509;52.178;5.404;2024-02-23T12:34:47;9.50;99.90
16785;DHT22;8509;52.178;5.404;2024-02-23T12:37:34;9.50;99.90
16785;DHT22;8509;52.178;5.404;2024-02-23T12:40:00;9.70;99.90
16785;DHT22;8509;52.178;5.404;2024-02-23T12:42:26;9.70;99.90
16785;DHT22;8509;52.178;5.404;2024-02-23T12:44:53;9.80;99.90
16785;DHT22;8509;52.178;5.404;2024-02-23T12:47:23;9.80;99.90
16785;DHT22;8509;52.178;5.404;2024-02-23T12:49:52;9.60;99.90
16785;DHT22;8509;52.178;5.404;2024-02-23T12:52:17;9.70;99.90
16785;DHT22;8509;52.178;5.404;2024-02-23T12:54:48;9.60;99.90
16785;DHT22;8509;52.178;5.404;2024-02-23T12:57:14;9.70;99.90
16785;DHT22;8509;52.178;5.404;2024-02-23T12:59:40;9.70;99.90
16785;DHT22;8509;52.178;5.404;2024-02-23T13:02:08;9.70;99.90
16785;DHT22;8509;52.178;5.404;2024-02-23T13:04:35;9.70;99.90
16785;DHT22;8509;52.178;5.404;2024-02-23T13:07:01;9.80;99.90
16785;DHT22;8509;52.178;5.404;2024-02-23T13:09:28;9.90;99.90
16785;DHT22;8509;52.178;5.404;2024-02-23T13:11:54;9.90;99.90
16785;DHT22;8509;52.178;5.404;2024-02-23T13:14:21;10.00;99.90
16785;DHT22;8509;52.178;5.404;2024-02-23T13:16:47;10.00;99.90
16785;DHT22;8509;52.178;5.404;2024-02-23T13:19:13;10.00;99.90
16785;DHT22;8509;52.178;5.404;2024-02-23T13:21:41;9.90;99.90
16785;DHT22;8509;52.178;5.404;2024-02-23T13:24:10;9.80;99.90
16785;DHT22;8509;52.178;5.404;2024-02-23T13:26:35;9.90;99.90
16785;DHT22;8509;52.178;5.404;2024-02-23T13:29:01;9.80;99.90
16785;DHT22;8509;52.178;5.404;2024-02-23T13:31:28;9.80;99.90
16785;DHT22;8509;52.178;5.404;2024-02-23T13:33:53;9.80;99.90
16785;DHT22;8509;52.178;5.404;2024-02-23T13:36:19;9.90;99.90
16785;DHT22;8509;52.178;5.404;2024-02-23T13:38:45;9.70;99.90
16785;DHT22;8509;52.178;5.404;2024-02-23T13:41:13;9.90;99.90
16785;DHT22;8509;52.178;5.404;2024-02-23T13:43:39;9.90;99.90
16785;DHT22;8509;52.178;5.404;2024-02-23T13:46:05;9.90;99.90
16785;DHT22;8509;52.178;5.404;2024-02-23T13:48:30;9.80;99.90
16785;DHT22;8509;52.178;5.404;2024-02-23T13:50:58;9.80;99.90
16785;DHT22;8509;52.178;5.404;2024-02-23T13:53:29;9.80;99.90
16785;DHT22;8509;52.178;5.404;2024-02-23T13:55:55;9.90;99.90
16785;DHT22;8509;52.178;5.404;2024-02-23T13:58:20;9.90;99.90
16785;DHT22;8509;52.178;5.404;2024-02-23T14:00:46;9.80;99.90
16785;DHT22;8509;52.178;5.404;2024-02-23T14:03:16;9.80;99.90
16785;DHT22;8509;52.178;5.404;2024-02-23T14:05:51;9.90;99.90
16785;DHT22;8509;52.178;5.404;2024-02-23T14:08:17;9.90;99.90
16785;DHT22;8509;52.178;5.404;2024-02-23T14:10:42;9.80;99.90
16785;DHT22;8509;52.178;5.404;2024-02-23T14:13:08;9.90;99.90
16785;DHT22;8509;52.178;5.404;2024-02-23T14:15:34;9.90;99.90
16785;DHT22;8509;52.178;5.404;2024-02-23T14:18:00;9.90;99.90
16785;DHT22;8509;52.178;5.404;2024-02-23T14:20:25;9.90;99.90
16785;DHT22;8509;52.178;5.404;2024-02-23T14:22:51;9.90;99.90
16785;DHT22;8509;52.178;5.404;2024-02-23T14:25:18;9.90;99.90
16785;DHT22;8509;52.178;5.404;2024-02-23T14:27:44;10.10;99.90
16785;DHT22;8509;52.178;5.404;2024-02-23T14:30:11;10.10;99.90
16785;DHT22;8509;52.178;5.404;2024-02-23T14:32:47;10.20;99.90
16785;DHT22;8509;52.178;5.404;2024-02-23T14:35:14;10.10;99.90
16785;DHT22;8509;52.178;5.404;2024-02-23T14:37:40;10.10;99.90
16785;DHT22;8509;52.178;5.404;2024-02-23T14:40:08;10.10;99.90
16785;DHT22;8509;52.178;5.404;2024-02-23T14:42:37;10.10;99.90
16785;DHT22;8509;52.178;5.404;2024-02-23T14:45:05;10.30;99.90
16785;DHT22;8509;52.178;5.404;2024-02-23T14:47:37;10.40;99.90
16785;DHT22;8509;52.178;5.404;2024-02-23T14:50:03;10.50;99.90
16785;DHT22;8509;52.178;5.404;2024-02-23T14:52:30;10.40;99.90
16785;DHT22;8509;52.178;5.404;2024-02-23T14:54:56;10.50;99.90
16785;DHT22;8509;52.178;5.404;2024-02-23T14:57:24;10.30;99.90
16785;DHT22;8509;52.178;5.404;2024-02-23T14:59:51;10.20;99.90
16785;DHT22;8509;52.178;5.404;2024-02-23T15:02:22;10.30;99.90
16785;DHT22;8509;52.178;5.404;2024-02-23T15:04:48;10.30;99.90
16785;DHT22;8509;52.178;5.404;2024-02-23T15:07:14;10.20;99.90
16785;DHT22;8509;52.178;5.404;2024-02-23T15:09:41;10.00;99.90
16785;DHT22;8509;52.178;5.404;2024-02-23T15:12:09;9.90;99.90
16785;DHT22;8509;52.178;5.404;2024-02-23T15:14:34;9.80;99.90
16785;DHT22;8509;52.178;5.404;2024-02-23T15:17:00;9.70;99.90
16785;DHT22;8509;52.178;5.404;2024-02-23T15:19:26;9.80;99.90
16785;DHT22;8509;52.178;5.404;2024-02-23T15:21:52;10.00;99.90
16785;DHT22;8509;52.178;5.404;2024-02-23T15:24:19;10.00;99.90
16785;DHT22;8509;52.178;5.404;2024-02-23T15:26:46;10.00;99.90
16785;DHT22;8509;52.178;5.404;2024-02-23T15:29:15;10.00;99.90
16785;DHT22;8509;52.178;5.404;2024-02-23T15:31:40;9.90;99.90
16785;DHT22;8509;52.178;5.404;2024-02-23T15:34:08;9.80;99.90
16785;DHT22;8509;52.178;5.404;2024-02-23T15:36:37;9.80;99.90
16785;DHT22;8509;52.178;5.404;2024-02-23T15:39:04;9.70;99.90
16785;DHT22;8509;52.178;5.404;2024-02-23T15:41:32;9.60;99.90
16785;DHT22;8509;52.178;5.404;2024-02-23T15:44:00;9.60;99.90
16785;DHT22;8509;52.178;5.404;2024-02-23T15:46:27;9.60;99.90
16785;DHT22;8509;52.178;5.404;2024-02-23T15:48:53;9.50;99.90
16785;DHT22;8509;52.178;5.404;2024-02-23T15:51:19;9.50;99.90
16785;DHT22;8509;52.178;5.404;2024-02-23T15:53:47;9.40;99.90
16785;DHT22;8509;52.178;5.404;2024-02-23T15:56:13;9.40;99.90